Time;durP1;ratioP1;P1;durP2;ratioP2;P2;SDS_P1;SDS_P2;PMS_P1;PMS_P2;Temp;Humidity;BMP_temperature;BMP_pressure;BME280_temperature;BME280_humidity;BME280_pressure;Samples;Min_cycle;Max_cycle;Signal;HPM_P1;HPM_P2
2021/12/15 00:04:37;;;;;;;19.92;5.90;;;;;;;;;;10353425;28;20060;-71
2021/12/15 00:09:39;;;;;;;;;;;;;;;;;;10344490;28;20064;-68
2021/12/15 00:14:42;;;;;;;12.95;5.07;;;;;;;;;;10353062;28;19960;-70
2021/12/15 00:19:50;;;;;;;15.50;5.53;;;;;;;;;;10343564;28;20092;-70
2021/12/15 00:24:53;;;;;;;13.43;5.88;;;;;;;;;;10353999;28;20038;-70
2021/12/15 00:29:56;;;;;;;15.55;5.05;;;;;;;;;;10354441;28;20288;-72
2021/12/15 00:35:00;;;;;;;17.17;6.18;;;;;;;;;;10349452;28;20119;-71
2021/12/15 00:40:04;;;;;;;14.05;5.82;;;;;;;;;;10359082;28;20038;-70
2021/12/15 00:45:08;;;;;;;18.55;4.88;;;;;;;;;;10354098;28;20707;-70
2021/12/15 00:50:13;;;;;;;15.50;5.32;;;;;;;;;;10358869;28;20041;-71
2021/12/15 00:55:19;;;;;;;17.85;5.32;;;;;;;;;;10359735;28;20046;-70
2021/12/15 01:00:23;;;;;;;16.05;5.75;;;;;;;;;;10361681;28;20092;-71
2021/12/15 01:05:26;;;;;;;;;;;;;;;;;;10361078;28;20461;-71
2021/12/15 01:10:44;;;;;;;14.60;5.40;;;;;;;;;;10363251;28;19922;-71
2021/12/15 01:21:07;;;;;;;15.63;5.72;;;;;;;;;;10356416;28;20042;-68
2021/12/15 01:26:13;;;;;;;15.13;6.20;;;;;;;;;;10355950;28;20477;-72
2021/12/15 01:31:16;;;;;;;16.30;5.50;;;;;;;;;;10363842;28;20488;-71
2021/12/15 01:36:19;;;;;;;19.30;6.03;;;;;;;;;;10359912;28;20093;-69
2021/12/15 01:41:24;;;;;;;17.23;5.70;;;;;;;;;;10361462;28;20112;-70
2021/12/15 01:51:47;;;;;;;17.55;5.53;;;;;;;;;;10372939;23;20038;-73
2021/12/15 01:56:51;;;;;;;17.30;6.53;;;;;;;;;;10364607;28;20042;-73
2021/12/15 02:01:54;;;;;;;16.83;6.07;;;;;;;;;;10336881;28;20038;-72
2021/12/15 02:06:58;;;;;;;17.87;5.43;;;;;;;;;;10324719;28;20050;-73
2021/12/15 02:12:03;;;;;;;18.63;6.63;;;;;;;;;;10319695;28;20590;-73
2021/12/15 02:17:06;;;;;;;18.05;6.18;;;;;;;;;;10322850;28;20304;-72
2021/12/15 02:22:15;;;;;;;18.05;5.35;;;;;;;;;;10317970;28;20038;-72
2021/12/15 02:27:38;;;;;;;16.70;6.03;;;;;;;;;;10325270;28;20057;-72
2021/12/15 02:33:06;;;;;;;21.02;6.47;;;;;;;;;;10323578;28;20107;-72
2021/12/15 02:38:25;;;;;;;17.83;6.22;;;;;;;;;;10319727;28;20321;-72
2021/12/15 02:43:28;;;;;;;21.63;6.85;;;;;;;;;;10323073;28;20108;-72
2021/12/15 02:48:31;;;;;;;16.60;6.50;;;;;;;;;;10318534;28;20039;-72
2021/12/15 02:53:36;;;;;;;18.27;6.60;;;;;;;;;;10320673;28;20102;-72
2021/12/15 02:58:47;;;;;;;20.98;7.00;;;;;;;;;;10349101;28;20076;-72
2021/12/15 03:09:38;;;;;;;22.48;7.22;;;;;;;;;;10318363;28;20124;-72
2021/12/15 03:19:54;;;;;;;16.25;5.88;;;;;;;;;;10283650;28;20047;-73
2021/12/15 03:24:59;;;;;;;18.02;6.20;;;;;;;;;;10323054;28;20046;-73
2021/12/15 03:35:34;;;;;;;25.77;8.00;;;;;;;;;;10321921;28;19925;-73
2021/12/15 03:40:40;;;;;;;17.20;5.97;;;;;;;;;;10331592;28;20073;-74
2021/12/15 03:45:45;;;;;;;23.43;6.83;;;;;;;;;;10321569;28;20034;-73
2021/12/15 03:50:48;;;;;;;18.08;7.05;;;;;;;;;;10320267;28;20073;-72
2021/12/15 03:55:53;;;;;;;25.43;8.87;;;;;;;;;;10321414;28;20498;-72
2021/12/15 04:00:57;;;;;;;20.20;6.68;;;;;;;;;;10320573;28;20038;-73
2021/12/15 04:06:02;;;;;;;21.30;6.55;;;;;;;;;;10320359;28;20323;-73
2021/12/15 04:11:08;;;;;;;19.43;6.37;;;;;;;;;;10323121;28;20120;-73
2021/12/15 04:16:45;;;;;;;14.63;5.82;;;;;;;;;;10321789;28;20057;-72
2021/12/15 04:21:49;;;;;;;18.43;7.20;;;;;;;;;;10321892;28;20045;-73
2021/12/15 04:26:54;;;;;;;20.50;7.90;;;;;;;;;;10331720;28;20097;-73
2021/12/15 04:31:59;;;;;;;20.98;7.78;;;;;;;;;;10328364;28;20038;-73
2021/12/15 04:37:02;;;;;;;30.80;9.77;;;;;;;;;;10329610;28;20042;-73
2021/12/15 04:42:07;;;;;;;23.38;8.43;;;;;;;;;;10326224;28;20093;-73
2021/12/15 04:47:11;;;;;;;25.23;9.20;;;;;;;;;;10327606;28;20081;-73
2021/12/15 04:52:15;;;;;;;24.25;8.93;;;;;;;;;;10333014;28;20266;-74
2021/12/15 04:57:20;;;;;;;20.73;7.13;;;;;;;;;;10333334;28;20086;-73
2021/12/15 05:02:23;;;;;;;25.50;8.40;;;;;;;;;;10335860;28;20031;-73
2021/12/15 05:07:27;;;;;;;24.30;7.30;;;;;;;;;;10340040;28;20105;-73
2021/12/15 05:12:31;;;;;;;24.58;8.52;;;;;;;;;;10340909;28;20042;-74
2021/12/15 05:17:34;;;;;;;21.65;8.32;;;;;;;;;;10336533;28;20463;-73
2021/12/15 05:22:37;;;;;;;27.17;8.80;;;;;;;;;;10343064;28;20042;-71
2021/12/15 05:27:42;;;;;;;22.47;9.23;;;;;;;;;;10348255;28;20042;-73
2021/12/15 05:32:45;;;;;;;15.40;6.05;;;;;;;;;;10321946;28;20639;-73
2021/12/15 05:37:48;;;;;;;14.65;5.72;;;;;;;;;;10326062;28;20065;-74
2021/12/15 05:42:56;;;;;;;18.73;6.95;;;;;;;;;;10327772;28;20077;-72
2021/12/15 05:47:59;;;;;;;18.80;7.17;;;;;;;;;;10323854;28;20078;-74
2021/12/15 05:53:03;;;;;;;15.57;6.28;;;;;;;;;;10326263;28;20038;-73
2021/12/15 05:58:07;;;;;;;21.53;9.03;;;;;;;;;;10326562;28;20034;-73
2021/12/15 06:03:09;;;;;;;;;;;;;;;;;;10327742;28;20112;-72
2021/12/15 06:08:12;;;;;;;22.70;9.10;;;;;;;;;;10325568;28;20366;-72
2021/12/15 06:13:17;;;;;;;19.27;7.87;;;;;;;;;;10328563;28;20043;-73
2021/12/15 06:18:19;;;;;;;;;;;;;;;;;;10325550;28;20502;-74
2021/12/15 06:23:22;;;;;;;21.90;8.55;;;;;;;;;;10320792;28;19929;-75
2021/12/15 06:28:28;;;;;;;24.80;9.95;;;;;;;;;;10322125;28;20506;-73
2021/12/15 06:33:31;;;;;;;18.70;6.60;;;;;;;;;;10321456;28;20049;-74
2021/12/15 06:38:35;;;;;;;21.97;7.13;;;;;;;;;;10323215;28;20038;-74
2021/12/15 06:43:43;;;;;;;17.92;6.50;;;;;;;;;;10317697;28;20089;-73
2021/12/15 06:59:28;;;;;;;25.87;9.07;;;;;;;;;;10319557;28;20050;-73
2021/12/15 07:04:31;;;;;;;;;;;;;;;;;;10323557;28;20546;-73
2021/12/15 07:09:34;;;;;;;17.02;7.13;;;;;;;;;;10320558;28;19928;-73
2021/12/15 07:14:38;;;;;;;29.38;9.95;;;;;;;;;;10322673;28;20348;-74
2021/12/15 07:20:04;;;;;;;;;;;;;;;;;;10330218;28;20062;-74
2021/12/15 07:25:07;;;;;;;28.93;11.00;;;;;;;;;;10313011;28;19926;-74
2021/12/15 07:30:12;;;;;;;34.38;10.10;;;;;;;;;;10311318;28;20427;-73
2021/12/15 07:35:16;;;;;;;29.43;9.50;;;;;;;;;;10309801;28;20097;-74
2021/12/15 07:40:22;;;;;;;28.75;8.88;;;;;;;;;;10304851;28;20078;-73
2021/12/15 07:45:27;;;;;;;26.02;8.25;;;;;;;;;;10318045;28;20311;-73
2021/12/15 07:50:30;;;;;;;27.58;9.05;;;;;;;;;;10307523;28;20454;-73
2021/12/15 07:55:34;;;;;;;29.37;8.67;;;;;;;;;;10313231;28;20039;-73
2021/12/15 08:00:39;;;;;;;21.83;8.07;;;;;;;;;;10343711;22;20313;-70
2021/12/15 08:05:43;;;;;;;27.02;8.93;;;;;;;;;;10345270;28;20038;-68
2021/12/15 08:10:47;;;;;;;30.02;8.68;;;;;;;;;;10339169;28;20470;-69
2021/12/15 08:15:51;;;;;;;35.38;9.63;;;;;;;;;;10336745;28;20082;-69
2021/12/15 08:20:54;;;;;;;;;;;;;;;;;;10347866;28;20241;-70
2021/12/15 08:25:57;;;;;;;26.90;7.75;;;;;;;;;;10349097;28;19972;-69
2021/12/15 08:31:01;;;;;;;30.30;9.88;;;;;;;;;;10341947;28;20045;-70
2021/12/15 08:36:05;;;;;;;21.25;6.30;;;;;;;;;;10339199;28;20613;-70
2021/12/15 08:41:11;;;;;;;19.67;6.47;;;;;;;;;;10345532;28;20077;-70
2021/12/15 08:46:17;;;;;;;14.02;5.20;;;;;;;;;;10345796;28;20049;-69
2021/12/15 08:51:25;;;;;;;30.08;8.05;;;;;;;;;;10335772;28;20109;-70
2021/12/15 08:56:28;;;;;;;22.08;6.47;;;;;;;;;;10337591;28;20038;-70
2021/12/15 09:01:33;;;;;;;39.00;11.65;;;;;;;;;;10340392;28;20034;-69
2021/12/15 09:06:38;;;;;;;17.70;6.57;;;;;;;;;;10341250;28;20034;-71
2021/12/15 09:11:41;;;;;;;17.92;5.25;;;;;;;;;;10347784;28;20097;-67
2021/12/15 09:16:47;;;;;;;16.30;6.30;;;;;;;;;;10353503;28;20037;-71
2021/12/15 09:21:51;;;;;;;17.13;5.20;;;;;;;;;;10352874;28;20466;-71
2021/12/15 09:26:55;;;;;;;14.88;5.05;;;;;;;;;;10339868;28;20070;-73
2021/12/15 09:32:00;;;;;;;11.93;4.47;;;;;;;;;;10338512;28;20038;-69
2021/12/15 09:37:04;;;;;;;11.32;3.50;;;;;;;;;;10349359;28;20042;-71
2021/12/15 09:42:07;;;;;;;4.10;1.48;;;;;;;;;;10349282;28;20042;-70
2021/12/15 09:47:20;;;;;;;14.20;3.55;;;;;;;;;;10348492;28;20576;-69
2021/12/15 10:02:00;;;;;;;9.73;3.50;;;;;;;;;;10355091;28;20046;-69
2021/12/15 10:03:26;;;;;;;9.00;3.30;;;;;;;;;;10354376;28;20066;-70
2021/12/15 10:19:20;;;;;;;8.73;3.10;;;;;;;;;;10346325;28;20477;-70
2021/12/15 10:24:26;;;;;;;5.18;2.20;;;;;;;;;;10345240;28;20106;-70
2021/12/15 10:29:29;;;;;;;11.00;2.50;;;;;;;;;;10346091;28;20179;-70
2021/12/15 10:34:33;;;;;;;4.80;2.05;;;;;;;;;;10346382;28;20108;-70
2021/12/15 10:39:38;;;;;;;5.43;2.42;;;;;;;;;;10346326;28;20082;-70
2021/12/15 10:44:41;;;;;;;6.70;2.22;;;;;;;;;;10344181;28;20513;-69
2021/12/15 10:49:45;;;;;;;6.07;2.20;;;;;;;;;;10344725;28;20212;-69
2021/12/15 10:54:51;;;;;;;3.35;1.40;;;;;;;;;;10345992;28;20678;-70
2021/12/15 10:59:55;;;;;;;4.18;1.58;;;;;;;;;;10354059;28;20108;-69
2021/12/15 11:05:16;;;;;;;7.53;2.42;;;;;;;;;;10349739;28;20041;-69
2021/12/15 11:10:21;;;;;;;6.57;2.65;;;;;;;;;;10349333;28;20034;-71
2021/12/15 11:15:26;;;;;;;4.47;2.30;;;;;;;;;;10349658;28;20042;-71
2021/12/15 11:20:37;;;;;;;3.45;1.63;;;;;;;;;;10342068;28;20041;-70
2021/12/15 11:25:45;;;;;;;4.75;2.00;;;;;;;;;;10347550;28;20034;-70
2021/12/15 11:30:51;;;;;;;5.10;2.20;;;;;;;;;;10342157;28;20045;-70
2021/12/15 11:35:58;;;;;;;4.57;2.17;;;;;;;;;;10350222;28;20041;-70
2021/12/15 11:41:10;;;;;;;8.50;3.00;;;;;;;;;;10350240;28;20049;-70
2021/12/15 11:46:15;;;;;;;3.55;1.45;;;;;;;;;;10350076;28;20046;-71
2021/12/15 11:51:29;;;;;;;7.90;2.72;;;;;;;;;;10352005;28;20073;-70
2021/12/15 11:56:36;;;;;;;5.93;2.83;;;;;;;;;;10366905;28;20029;-72
2021/12/15 12:01:41;;;;;;;6.18;2.88;;;;;;;;;;10362145;28;20045;-71
2021/12/15 12:06:46;;;;;;;6.13;2.85;;;;;;;;;;10360244;28;20037;-70
2021/12/15 12:11:53;;;;;;;9.05;4.22;;;;;;;;;;10372466;28;20068;-71
2021/12/15 12:16:56;;;;;;;8.75;2.88;;;;;;;;;;10355291;28;20038;-69
2021/12/15 12:22:01;;;;;;;9.27;3.75;;;;;;;;;;10347305;28;20042;-69
2021/12/15 12:27:05;;;;;;;4.57;2.55;;;;;;;;;;10349535;28;20038;-70
2021/12/15 12:32:08;;;;;;;;;;;;;;;;;;10339725;28;20073;-68
2021/12/15 12:37:14;;;;;;;7.30;2.67;;;;;;;;;;10337373;28;19921;-70
2021/12/15 12:42:31;;;;;;;5.75;2.50;;;;;;;;;;10344848;28;20490;-68
2021/12/15 12:47:41;;;;;;;3.30;1.27;;;;;;;;;;10355285;28;20490;-70
2021/12/15 13:03:33;;;;;;;4.65;2.42;;;;;;;;;;10348764;28;21298;-70
2021/12/15 13:08:40;;;;;;;2.88;1.65;;;;;;;;;;10344837;28;20298;-71
2021/12/15 13:13:54;;;;;;;4.93;2.55;;;;;;;;;;10351442;28;20383;-70
2021/12/15 13:18:59;;;;;;;6.15;2.63;;;;;;;;;;10353535;28;20053;-68
2021/12/15 13:24:09;;;;;;;5.78;2.90;;;;;;;;;;10351035;28;20034;-71
2021/12/15 13:29:22;;;;;;;5.43;2.72;;;;;;;;;;10333115;28;20054;-69
2021/12/15 13:34:39;;;;;;;5.88;1.50;;;;;;;;;;10343642;28;20041;-70
2021/12/15 13:39:45;;;;;;;7.90;3.08;;;;;;;;;;10344100;28;20046;-69
2021/12/15 13:44:49;;;;;;;7.70;3.13;;;;;;;;;;10350774;28;20038;-69
2021/12/15 13:49:52;;;;;;;;;;;;;;;;;;10343838;28;20470;-69
2021/12/15 13:54:58;;;;;;;11.52;4.68;;;;;;;;;;10342844;28;20025;-67
2021/12/15 14:00:04;;;;;;;8.75;3.88;;;;;;;;;;10345854;28;20110;-67
2021/12/15 14:05:09;;;;;;;6.95;2.72;;;;;;;;;;10347444;28;20060;-72
2021/12/15 14:10:33;;;;;;;7.05;3.33;;;;;;;;;;10356314;28;20038;-71
2021/12/15 14:15:45;;;;;;;8.75;3.63;;;;;;;;;;10382833;28;20049;-72
2021/12/15 14:20:50;;;;;;;7.40;3.00;;;;;;;;;;10382309;28;20045;-71
2021/12/15 14:25:54;;;;;;;8.88;3.72;;;;;;;;;;10348506;28;20081;-71
2021/12/15 14:31:03;;;;;;;10.70;3.83;;;;;;;;;;10359213;28;20088;-72
2021/12/15 14:36:08;;;;;;;7.57;3.25;;;;;;;;;;10363704;28;20065;-72
2021/12/15 14:41:16;;;;;;;7.68;3.55;;;;;;;;;;10358044;28;20076;-72
2021/12/15 14:46:24;;;;;;;9.40;3.67;;;;;;;;;;10362259;28;20049;-72
2021/12/15 14:51:27;;;;;;;8.07;3.40;;;;;;;;;;10365255;28;20038;-72
2021/12/15 14:56:47;;;;;;;10.82;3.70;;;;;;;;;;10369107;28;20528;-72
2021/12/15 15:01:52;;;;;;;7.93;3.55;;;;;;;;;;10380783;28;20490;-72
2021/12/15 15:06:57;;;;;;;9.80;3.80;;;;;;;;;;10382243;28;20034;-72
2021/12/15 15:12:02;;;;;;;10.43;4.25;;;;;;;;;;10395028;28;20042;-72
2021/12/15 15:17:07;;;;;;;9.85;3.72;;;;;;;;;;10398714;28;20136;-72
2021/12/15 15:22:16;;;;;;;7.65;3.35;;;;;;;;;;10396705;28;20100;-72
2021/12/15 15:27:19;;;;;;;9.90;4.10;;;;;;;;;;10397200;28;20042;-73
2021/12/15 15:32:25;;;;;;;9.83;3.83;;;;;;;;;;10375442;28;20077;-72
2021/12/15 15:37:30;;;;;;;9.13;4.28;;;;;;;;;;10394162;28;20037;-73
2021/12/15 15:42:33;;;;;;;13.15;4.95;;;;;;;;;;10376011;28;20434;-71
2021/12/15 15:47:37;;;;;;;10.65;4.20;;;;;;;;;;10362063;28;20552;-72
2021/12/15 15:52:41;;;;;;;9.40;4.05;;;;;;;;;;10365112;28;20056;-72
2021/12/15 15:57:49;;;;;;;9.95;4.15;;;;;;;;;;10363670;28;20737;-72
2021/12/15 16:02:54;;;;;;;10.45;4.38;;;;;;;;;;10358188;28;20053;-72
2021/12/15 16:07:56;;;;;;;10.90;4.10;;;;;;;;;;10360143;28;20029;-71
2021/12/15 16:13:01;;;;;;;9.48;4.07;;;;;;;;;;10356575;28;20042;-71
2021/12/15 16:18:07;;;;;;;11.77;4.53;;;;;;;;;;10354879;28;20041;-72
2021/12/15 16:23:19;;;;;;;10.27;4.57;;;;;;;;;;10349017;28;20066;-72
2021/12/15 16:28:22;;;;;;;11.57;5.32;;;;;;;;;;10355329;28;20049;-72
2021/12/15 16:33:29;;;;;;;11.43;4.68;;;;;;;;;;10333691;28;20359;-72
2021/12/15 16:38:35;;;;;;;11.77;4.63;;;;;;;;;;10350005;28;20113;-72
2021/12/15 16:43:44;;;;;;;10.55;4.13;;;;;;;;;;10357077;28;20132;-73
2021/12/15 16:48:51;;;;;;;10.30;4.18;;;;;;;;;;10356483;28;20068;-72
2021/12/15 16:53:55;;;;;;;8.75;3.90;;;;;;;;;;10356927;28;20029;-73
2021/12/15 16:59:19;;;;;;;11.48;4.28;;;;;;;;;;10350535;28;20112;-74
2021/12/15 17:04:46;;;;;;;12.35;4.57;;;;;;;;;;10354386;28;20049;-74
2021/12/15 17:10:10;;;;;;;14.07;4.65;;;;;;;;;;10358224;28;20050;-75
2021/12/15 17:15:42;;;;;;;11.32;4.55;;;;;;;;;;10366226;28;20042;-75
2021/12/15 17:21:21;;;;;;;12.32;4.78;;;;;;;;;;10354659;28;20242;-72
2021/12/15 17:26:26;;;;;;;15.82;6.03;;;;;;;;;;10345624;28;20418;-72
2021/12/15 17:31:31;;;;;;;11.38;4.47;;;;;;;;;;10355425;28;20061;-72
2021/12/15 17:36:37;;;;;;;16.63;6.30;;;;;;;;;;10360830;28;20124;-71
2021/12/15 17:41:41;;;;;;;13.25;5.15;;;;;;;;;;10358925;28;20129;-72
2021/12/15 17:46:48;;;;;;;13.88;5.45;;;;;;;;;;10357573;28;20053;-73
2021/12/15 17:51:57;;;;;;;9.70;3.75;;;;;;;;;;10364247;28;20129;-73
2021/12/15 17:57:01;;;;;;;14.75;5.13;;;;;;;;;;10366185;28;20073;-72
2021/12/15 18:02:04;;;;;;;13.63;5.20;;;;;;;;;;10368220;28;20050;-72
2021/12/15 18:07:09;;;;;;;14.15;5.18;;;;;;;;;;10367179;28;20049;-72
2021/12/15 18:12:12;;;;;;;11.30;4.40;;;;;;;;;;10367477;28;20062;-72
2021/12/15 18:17:16;;;;;;;18.40;5.88;;;;;;;;;;10363750;28;20050;-72
2021/12/15 18:22:20;;;;;;;14.27;5.30;;;;;;;;;;10366648;28;20141;-73
2021/12/15 18:27:22;;;;;;;;;;;;;;;;;;10365218;28;20433;-73
2021/12/15 18:32:26;;;;;;;13.70;5.07;;;;;;;;;;10365427;28;20016;-71
2021/12/15 18:37:30;;;;;;;15.37;5.33;;;;;;;;;;10368407;28;20041;-72
2021/12/15 18:42:35;;;;;;;13.93;5.43;;;;;;;;;;10376726;28;20065;-72
2021/12/15 18:47:38;;;;;;;17.38;6.38;;;;;;;;;;10370559;28;20157;-73
2021/12/15 18:52:44;;;;;;;16.57;6.50;;;;;;;;;;10368605;28;20062;-73
2021/12/15 18:57:47;;;;;;;21.98;7.15;;;;;;;;;;10366796;28;20060;-74
2021/12/15 19:02:50;;;;;;;13.07;4.67;;;;;;;;;;10369681;28;20050;-73
2021/12/15 19:07:54;;;;;;;20.67;7.03;;;;;;;;;;10364103;28;20054;-73
2021/12/15 19:12:59;;;;;;;;;;;;;;;;;;10369121;28;20050;-72
2021/12/15 19:18:02;;;;;;;;;;;;;;;;;;10365051;28;19925;-73
2021/12/15 19:23:06;;;;;;;17.97;6.90;;;;;;;;;;10363002;28;19932;-72
2021/12/15 19:28:09;;;;;;;19.95;7.63;;;;;;;;;;10356215;28;20066;-73
2021/12/15 19:33:13;;;;;;;21.20;7.73;;;;;;;;;;10349949;28;20080;-72
2021/12/15 19:38:18;;;;;;;20.70;8.15;;;;;;;;;;10362677;28;20054;-73
2021/12/15 19:43:21;;;;;;;19.33;5.93;;;;;;;;;;10363303;28;20058;-72
2021/12/15 19:48:25;;;;;;;22.23;7.67;;;;;;;;;;10378987;28;20077;-74
2021/12/15 19:53:29;;;;;;;27.83;7.85;;;;;;;;;;10386993;28;20650;-74
2021/12/15 19:58:32;;;;;;;18.95;7.00;;;;;;;;;;10375443;28;20049;-72
2021/12/15 20:03:35;;;;;;;17.63;6.18;;;;;;;;;;10387118;22;20485;-69
2021/12/15 20:08:40;;;;;;;19.55;7.50;;;;;;;;;;10360580;28;20038;-70
2021/12/15 20:13:42;;;;;;;18.85;7.00;;;;;;;;;;10361451;28;20089;-70
2021/12/15 20:18:45;;;;;;;20.53;7.80;;;;;;;;;;10355898;28;20104;-70
2021/12/15 20:23:49;;;;;;;23.63;8.02;;;;;;;;;;10354356;28;20504;-71
2021/12/15 20:28:52;;;;;;;17.38;7.55;;;;;;;;;;10372059;28;20138;-68
2021/12/15 20:33:56;;;;;;;26.17;8.07;;;;;;;;;;10358643;28;20096;-69
2021/12/15 20:39:05;;;;;;;22.03;7.30;;;;;;;;;;10356272;28;20065;-70
2021/12/15 20:44:09;;;;;;;20.67;7.45;;;;;;;;;;10351696;28;20532;-70
2021/12/15 20:49:11;;;;;;;22.58;7.57;;;;;;;;;;10355722;28;20124;-69
2021/12/15 20:54:16;;;;;;;20.83;7.25;;;;;;;;;;10368088;28;20062;-71
2021/12/15 20:59:19;;;;;;;22.55;8.77;;;;;;;;;;10364046;28;20453;-69
2021/12/15 21:04:22;;;;;;;23.50;7.60;;;;;;;;;;10355262;28;20068;-70
2021/12/15 21:09:28;;;;;;;23.13;7.80;;;;;;;;;;10360243;28;21596;-70
2021/12/15 21:14:33;;;;;;;20.42;7.70;;;;;;;;;;10377916;28;20160;-71
2021/12/15 21:19:37;;;;;;;21.60;7.55;;;;;;;;;;10381334;28;20073;-71
2021/12/15 21:24:41;;;;;;;23.67;7.28;;;;;;;;;;10351987;28;20056;-67
2021/12/15 21:29:45;;;;;;;19.02;7.60;;;;;;;;;;10362096;28;20533;-69
2021/12/15 21:34:48;;;;;;;22.77;6.57;;;;;;;;;;10362929;28;20133;-69
2021/12/15 21:39:52;;;;;;;23.88;7.95;;;;;;;;;;10371344;28;20048;-68
2021/12/15 21:44:55;;;;;;;17.60;7.20;;;;;;;;;;10367057;28;20462;-72
2021/12/15 21:49:58;;;;;;;25.80;7.97;;;;;;;;;;10361288;28;20125;-70
2021/12/15 21:55:02;;;;;;;25.13;7.70;;;;;;;;;;10362604;28;20540;-69
2021/12/15 22:00:04;;;;;;;;;;;;;;;;;;10363833;28;20108;-69
2021/12/15 22:05:08;;;;;;;22.67;7.63;;;;;;;;;;10360712;28;19938;-72
2021/12/15 22:10:13;;;;;;;24.33;8.52;;;;;;;;;;10347622;28;20495;-72
2021/12/15 22:15:17;;;;;;;22.30;7.40;;;;;;;;;;10343739;28;20060;-71
2021/12/15 22:20:21;;;;;;;21.10;7.10;;;;;;;;;;10361120;28;20060;-72
2021/12/15 22:25:25;;;;;;;21.27;6.93;;;;;;;;;;10362508;28;20058;-72
2021/12/15 22:30:28;;;;;;;;;;;;;;;;;;10355629;28;20061;-71
2021/12/15 22:35:31;;;;;;;25.07;9.10;;;;;;;;;;10354935;28;19941;-71
2021/12/15 22:40:36;;;;;;;22.80;8.10;;;;;;;;;;10362901;28;20129;-71
2021/12/15 22:45:39;;;;;;;21.48;7.70;;;;;;;;;;10359603;28;20076;-72
2021/12/15 22:50:42;;;;;;;21.52;7.60;;;;;;;;;;10367558;28;20050;-71
2021/12/15 22:55:46;;;;;;;19.35;7.05;;;;;;;;;;10360766;28;20459;-71
2021/12/15 23:00:49;;;;;;;;;;;;;;;;;;10357733;28;20133;-70
2021/12/15 23:05:52;;;;;;;20.90;7.28;;;;;;;;;;10361459;28;19944;-71
2021/12/15 23:11:04;;;;;;;24.33;7.75;;;;;;;;;;10363203;28;20061;-70
2021/12/15 23:16:07;;;;;;;16.77;5.90;;;;;;;;;;10360079;28;20049;-70
2021/12/15 23:21:10;;;;;;;21.67;8.17;;;;;;;;;;10358747;28;20057;-72
2021/12/15 23:26:16;;;;;;;18.83;7.00;;;;;;;;;;10357115;28;20049;-71
2021/12/15 23:31:20;;;;;;;20.57;7.97;;;;;;;;;;10358515;28;20064;-71
2021/12/15 23:36:23;;;;;;;;;;;;;;;;;;10359299;28;20114;-69
